createdAt,value
2018-09-13T00:00:40.595Z,16.20
2018-09-13T00:05:35.104Z,16.30
2018-09-13T00:10:29.584Z,16.30
2018-09-13T00:15:24.111Z,16.30
2018-09-13T00:20:18.592Z,16.30
2018-09-13T00:25:13.120Z,16.20
2018-09-13T00:30:07.632Z,16.20
2018-09-13T00:35:02.099Z,16.20
2018-09-13T00:39:56.667Z,16.30
2018-09-13T00:44:51.192Z,16.40
2018-09-13T00:49:45.689Z,16.50
2018-09-13T00:54:40.347Z,16.50
2018-09-13T00:59:34.837Z,16.40
2018-09-13T01:04:29.464Z,16.40
2018-09-13T01:09:23.962Z,16.40
2018-09-13T01:14:18.583Z,16.40
2018-09-13T01:19:13.167Z,16.40
2018-09-13T01:24:07.801Z,16.40
2018-09-13T01:29:02.353Z,16.40
2018-09-13T01:33:56.845Z,16.30
2018-09-13T01:38:51.372Z,16.30
2018-09-13T01:43:45.969Z,16.30
2018-09-13T01:48:40.482Z,16.20
2018-09-13T01:53:34.960Z,16.10
2018-09-13T01:58:29.468Z,16.00
2018-09-13T02:03:24.415Z,15.90
2018-09-13T02:08:18.924Z,15.80
2018-09-13T02:13:13.483Z,15.80
2018-09-13T02:18:08.052Z,15.80
2018-09-13T02:23:02.554Z,15.80
2018-09-13T02:27:57.630Z,15.80
2018-09-13T02:32:52.800Z,15.80
2018-09-13T02:37:47.412Z,15.80
2018-09-13T02:42:42.063Z,15.90
2018-09-13T02:47:36.798Z,15.80
2018-09-13T02:52:31.372Z,15.90
2018-09-13T02:57:25.929Z,15.90
2018-09-13T03:02:20.622Z,16.00
2018-09-13T03:07:15.146Z,16.00
2018-09-13T03:12:09.669Z,16.00
2018-09-13T03:17:04.376Z,16.00
2018-09-13T03:21:58.985Z,15.90
2018-09-13T03:26:53.606Z,16.00
2018-09-13T03:31:48.110Z,15.80
2018-09-13T03:36:42.858Z,15.80
2018-09-13T03:41:37.350Z,15.60
2018-09-13T03:46:31.983Z,15.60
2018-09-13T03:51:26.499Z,15.60
2018-09-13T03:56:21.203Z,15.60
2018-09-13T04:01:15.732Z,15.70
2018-09-13T04:06:10.356Z,15.80
2018-09-13T04:11:04.831Z,15.80
2018-09-13T04:15:59.380Z,15.90
2018-09-13T04:20:53.824Z,15.90
2018-09-13T04:25:48.357Z,15.90
2018-09-13T04:30:42.890Z,15.90
2018-09-13T04:35:37.460Z,15.90
2018-09-13T04:40:32.140Z,15.80
2018-09-13T04:45:26.878Z,15.80
2018-09-13T04:50:21.400Z,15.80
2018-09-13T04:55:15.900Z,15.60
2018-09-13T05:00:10.576Z,15.60
2018-09-13T05:05:05.659Z,15.50
2018-09-13T05:10:00.148Z,15.40
2018-09-13T05:14:54.624Z,15.30
2018-09-13T05:19:49.458Z,15.30
2018-09-13T05:24:43.969Z,15.30
2018-09-13T05:29:38.447Z,15.30
2018-09-13T05:34:32.936Z,15.50
2018-09-13T05:39:27.962Z,15.50
2018-09-13T05:44:22.508Z,15.50
2018-09-13T05:49:17.132Z,15.40
2018-09-13T05:54:11.866Z,15.30
2018-09-13T05:59:06.350Z,15.30
2018-09-13T06:04:00.954Z,15.30
2018-09-13T06:08:55.620Z,15.40
2018-09-13T06:13:50.603Z,15.30
2018-09-13T06:18:45.548Z,15.30
2018-09-13T06:23:40.018Z,15.30
2018-09-13T06:28:34.781Z,15.40
2018-09-13T06:33:29.266Z,15.50
2018-09-13T06:38:24.010Z,15.70
2018-09-13T06:43:18.867Z,15.70
2018-09-13T06:48:13.515Z,15.80
2018-09-13T06:53:08.020Z,15.90
2018-09-13T06:58:02.775Z,16.10
2018-09-13T07:02:57.672Z,16.30
2018-09-13T07:07:52.159Z,16.40
2018-09-13T07:12:46.815Z,16.40
2018-09-13T07:17:41.294Z,16.30
2018-09-13T07:22:36.374Z,16.00
2018-09-13T07:27:31.039Z,16.10
2018-09-13T07:32:25.540Z,16.20
2018-09-13T07:37:20.231Z,16.30
2018-09-13T07:42:14.828Z,16.60
2018-09-13T07:47:09.546Z,16.70
2018-09-13T07:52:04.070Z,16.70
2018-09-13T07:56:58.559Z,16.80
2018-09-13T08:01:53.196Z,16.80
2018-09-13T08:06:47.976Z,16.70
2018-09-13T08:11:42.731Z,16.50
2018-09-13T08:16:37.554Z,16.60
2018-09-13T08:21:32.170Z,16.50
2018-09-13T08:26:27.248Z,16.40
2018-09-13T08:31:21.911Z,16.40
2018-09-13T08:36:16.367Z,16.50
2018-09-13T08:41:10.984Z,16.40
2018-09-13T08:46:05.472Z,16.40
2018-09-13T08:50:59.962Z,16.60
2018-09-13T08:55:54.432Z,16.70
2018-09-13T09:00:48.957Z,16.70
2018-09-13T09:05:43.614Z,16.60
2018-09-13T09:10:38.127Z,16.70
2018-09-13T09:15:32.632Z,16.90
2018-09-13T09:20:27.138Z,17.10
2018-09-13T09:25:21.648Z,17.30
2018-09-13T09:30:16.279Z,17.40
2018-09-13T09:35:10.776Z,17.70
2018-09-13T09:40:05.718Z,17.80
2018-09-13T09:45:00.192Z,17.70
2018-09-13T09:49:54.765Z,17.70
2018-09-13T09:54:49.374Z,17.60
2018-09-13T09:59:44.737Z,18.00
2018-09-13T10:04:39.443Z,18.30
2018-09-13T10:09:34.110Z,18.70
2018-09-13T10:14:28.771Z,18.70
2018-09-13T10:19:28.776Z,18.90
2018-09-13T10:24:28.695Z,19.00
2018-09-13T10:29:28.496Z,19.40
2018-09-13T10:34:28.537Z,19.70
2018-09-13T10:39:28.332Z,19.50
2018-09-13T10:44:27.903Z,19.10
2018-09-13T10:49:28.022Z,18.80
2018-09-13T10:54:29.541Z,18.70
2018-09-13T10:59:24.699Z,18.70
2018-09-13T11:04:19.370Z,19.30
2018-09-13T11:09:15.214Z,19.50
2018-09-13T11:14:18.340Z,19.30
2018-09-13T11:19:13.184Z,19.40
2018-09-13T11:24:07.937Z,19.60
2018-09-13T11:29:02.761Z,19.70
2018-09-13T11:33:57.227Z,20.00
2018-09-13T11:38:51.685Z,20.10
2018-09-13T11:43:46.386Z,20.60
2018-09-13T11:48:40.881Z,21.00
2018-09-13T11:53:35.517Z,20.80
2018-09-13T11:58:31.150Z,20.90
2018-09-13T12:03:25.630Z,20.60
2018-09-13T12:08:20.209Z,20.80
2018-09-13T12:13:14.712Z,21.10
2018-09-13T12:18:09.496Z,21.10
2018-09-13T12:23:04.337Z,21.30
2018-09-13T12:27:58.891Z,21.40
2018-09-13T12:32:53.480Z,21.30
2018-09-13T12:37:48.405Z,20.70
2018-09-13T12:42:43.237Z,20.40
2018-09-13T12:47:38.383Z,20.30
2018-09-13T12:52:33.199Z,20.80
2018-09-13T12:57:27.694Z,21.20
2018-09-13T13:02:22.166Z,20.80
2018-09-13T13:07:19.009Z,21.00
2018-09-13T13:12:13.540Z,20.90
2018-09-13T13:17:08.258Z,20.80
2018-09-13T13:22:03.255Z,20.90
2018-09-13T13:26:57.830Z,21.00
2018-09-13T13:31:52.769Z,20.90
2018-09-13T13:36:47.276Z,21.00
2018-09-13T13:41:41.959Z,21.00
2018-09-13T13:46:37.483Z,20.80
2018-09-13T13:51:32.960Z,21.00
2018-09-13T13:56:29.120Z,20.80
2018-09-13T14:01:23.697Z,20.70
2018-09-13T14:06:18.174Z,20.50
2018-09-13T14:11:12.758Z,20.50
2018-09-13T14:16:07.672Z,20.10
2018-09-13T14:21:02.194Z,20.00
2018-09-13T14:25:56.912Z,20.30
2018-09-13T14:30:51.489Z,20.30
2018-09-13T14:35:46.140Z,20.30
2018-09-13T14:40:40.692Z,20.30
2018-09-13T14:45:35.376Z,20.30
2018-09-13T14:50:30.563Z,20.50
2018-09-13T14:55:25.226Z,20.20
2018-09-13T15:00:20.042Z,20.10
2018-09-13T15:05:14.623Z,20.20
2018-09-13T15:10:09.753Z,20.40
2018-09-13T15:15:04.772Z,20.50
2018-09-13T15:19:59.786Z,20.60
2018-09-13T15:24:55.447Z,20.70
2018-09-13T15:29:50.438Z,20.50
2018-09-13T15:34:46.014Z,20.50
2018-09-13T15:39:40.546Z,20.60
2018-09-13T15:44:35.743Z,20.30
2018-09-13T15:49:30.391Z,20.10
2018-09-13T15:54:25.248Z,19.90
2018-09-13T15:59:20.259Z,19.80
2018-09-13T16:04:15.967Z,19.50
2018-09-13T16:09:11.093Z,19.50
2018-09-13T16:14:06.062Z,19.40
2018-09-13T16:19:01.099Z,19.30
2018-09-13T16:23:55.973Z,19.30
2018-09-13T16:28:50.685Z,19.40
2018-09-13T16:33:45.737Z,19.50
2018-09-13T16:38:48.450Z,19.50
2018-09-13T16:43:48.549Z,19.40
2018-09-13T16:48:44.932Z,19.40
2018-09-13T16:53:39.768Z,19.40
2018-09-13T16:58:34.619Z,19.30
2018-09-13T17:03:29.342Z,19.40
2018-09-13T17:08:24.201Z,19.30
2018-09-13T17:13:18.888Z,19.20
2018-09-13T17:18:13.454Z,19.00
2018-09-13T17:23:08.356Z,19.00
2018-09-13T17:28:03.070Z,18.90
2018-09-13T17:32:57.910Z,18.80
2018-09-13T17:37:52.889Z,18.60
2018-09-13T17:42:47.384Z,18.60
2018-09-13T17:47:42.073Z,18.50
2018-09-13T17:52:40.495Z,18.40
2018-09-13T17:57:36.739Z,18.40
2018-09-13T18:02:32.607Z,18.30
2018-09-13T18:07:28.503Z,18.20
2018-09-13T18:12:26.176Z,18.10
2018-09-13T18:17:21.664Z,18.10
2018-09-13T18:22:19.552Z,18.10
2018-09-13T18:27:17.263Z,18.00
2018-09-13T18:32:14.875Z,18.00
2018-09-13T18:37:11.439Z,18.00
2018-09-13T18:42:08.673Z,18.00
2018-09-13T18:47:04.403Z,17.90
2018-09-13T18:51:58.917Z,17.90
2018-09-13T18:56:54.476Z,18.00
2018-09-13T19:01:48.950Z,17.90
2018-09-13T19:06:43.416Z,17.90
2018-09-13T19:11:37.960Z,17.90
2018-09-13T19:16:32.626Z,17.80
2018-09-13T19:21:27.537Z,17.70
2018-09-13T19:26:22.490Z,17.70
2018-09-13T19:31:17.188Z,17.60
2018-09-13T19:36:11.650Z,17.50
2018-09-13T19:41:06.277Z,17.40
2018-09-13T19:46:01.048Z,17.20
2018-09-13T19:50:55.593Z,17.00
2018-09-13T19:55:50.273Z,16.80
2018-09-13T20:00:44.752Z,16.50
2018-09-13T20:05:39.582Z,16.30
2018-09-13T20:10:35.184Z,16.10
2018-09-13T20:15:30.068Z,15.90
2018-09-13T20:20:25.086Z,15.70
2018-09-13T20:25:56.192Z,15.60
2018-09-13T20:30:51.151Z,15.50
2018-09-13T20:35:45.925Z,15.30
2018-09-13T20:40:41.183Z,15.20
2018-09-13T20:45:36.314Z,15.00
2018-09-13T20:50:31.386Z,14.90
2018-09-13T20:55:27.833Z,14.70
2018-09-13T21:00:22.826Z,14.60
2018-09-13T21:05:18.115Z,14.50
2018-09-13T21:10:13.405Z,14.40
2018-09-13T21:15:08.789Z,14.30
2018-09-13T21:20:03.680Z,14.20
2018-09-13T21:24:59.050Z,14.10
2018-09-13T21:29:54.566Z,14.00
2018-09-13T21:34:49.235Z,13.90
2018-09-13T21:39:44.487Z,13.80
2018-09-13T21:44:39.389Z,13.70
2018-09-13T21:49:34.268Z,13.60
2018-09-13T21:54:29.748Z,13.50
2018-09-13T21:59:24.653Z,13.40
2018-09-13T22:04:19.480Z,13.30
2018-09-13T22:09:16.469Z,13.20
2018-09-13T22:14:11.165Z,13.20
2018-09-13T22:19:05.901Z,13.10
2018-09-13T22:24:01.069Z,13.10
2018-09-13T22:28:57.151Z,13.00
2018-09-13T22:33:52.392Z,12.90
2018-09-13T22:38:47.322Z,12.90
2018-09-13T22:43:47.602Z,12.90
2018-09-13T22:48:42.302Z,12.80
2018-09-13T22:53:38.622Z,12.80
2018-09-13T22:58:34.562Z,12.80
2018-09-13T23:03:29.882Z,12.70
2018-09-13T23:08:24.934Z,12.60
2018-09-13T23:13:20.629Z,12.60
2018-09-13T23:18:15.788Z,12.50
2018-09-13T23:23:11.224Z,12.50
2018-09-13T23:28:06.294Z,12.40
2018-09-13T23:33:00.740Z,12.40
2018-09-13T23:37:55.202Z,12.30
2018-09-13T23:42:49.855Z,12.30
2018-09-13T23:47:44.536Z,12.30
2018-09-13T23:52:39.086Z,12.30
2018-09-13T23:57:33.650Z,12.30
